Time;durP1;ratioP1;P1;durP2;ratioP2;P2;SDS_P1;SDS_P2;PMS_P1;PMS_P2;Temp;Humidity;BMP_temperature;BMP_pressure;BME280_temperature;BME280_humidity;BME280_pressure;Samples;Min_cycle;Max_cycle;Signal;HPM_P1;HPM_P2
2023/10/09 00:01:25;;;;;;;15.37;5.60;;;;;;;;;;5054136;28;20405;-69
2023/10/09 00:03:53;;;;;;;17.90;5.60;;;;;;;;;;5053974;28;20428;-69
2023/10/09 00:06:31;;;;;;;15.50;5.97;;;;;;;;;;5052471;28;20414;-69
2023/10/09 00:08:57;;;;;;;20.53;5.90;;;;;;;;;;5053902;28;20761;-69
2023/10/09 00:11:29;;;;;;;11.40;5.47;;;;;;;;;;5053898;28;20416;-69
2023/10/09 00:13:58;;;;;;;7.90;4.60;;;;;;;;;;5053829;28;20485;-69
2023/10/09 00:16:34;;;;;;;17.40;6.43;;;;;;;;;;5052286;28;20519;-69
2023/10/09 00:19:19;;;;;;;15.23;5.30;;;;;;;;;;5053851;28;20408;-69
2023/10/09 00:21:46;;;;;;;18.90;6.10;;;;;;;;;;5052781;28;20967;-69
2023/10/09 00:24:24;;;;;;;16.23;6.33;;;;;;;;;;5053319;28;20413;-69
2023/10/09 00:27:12;;;;;;;14.53;5.60;;;;;;;;;;5052069;28;20509;-69
2023/10/09 00:29:44;;;;;;;15.50;6.50;;;;;;;;;;5052252;28;20425;-69
2023/10/09 00:32:15;;;;;;;26.63;6.73;;;;;;;;;;5053679;28;20402;-69
2023/10/09 00:34:41;;;;;;;17.43;4.80;;;;;;;;;;5052147;28;20453;-69
2023/10/09 00:37:13;;;;;;;19.27;5.80;;;;;;;;;;5053280;28;20417;-69
2023/10/09 00:42:06;;;;;;;15.70;5.80;;;;;;;;;;5053455;28;20492;-68
2023/10/09 00:44:41;;;;;;;21.87;7.10;;;;;;;;;;5053468;28;20416;-68
2023/10/09 00:47:20;;;;;;;12.03;5.17;;;;;;;;;;5053270;28;20431;-69
2023/10/09 00:50:08;;;;;;;9.17;4.60;;;;;;;;;;5053400;28;20897;-68
2023/10/09 00:53:01;;;;;;;20.63;6.03;;;;;;;;;;5053293;28;20526;-69
2023/10/09 00:55:27;;;;;;;13.87;5.90;;;;;;;;;;5052783;28;20500;-70
2023/10/09 00:57:59;;;;;;;10.90;4.47;;;;;;;;;;5051688;28;20490;-68
2023/10/09 01:03:22;;;;;;;16.27;6.10;;;;;;;;;;5053168;28;20417;-69
2023/10/09 01:05:56;;;;;;;16.70;5.47;;;;;;;;;;5053018;28;20896;-69
2023/10/09 01:09:09;;;;;;;14.10;4.47;;;;;;;;;;5053180;28;20619;-68
2023/10/09 01:11:22;;;;;;;12.40;4.90;;;;;;;;;;5044412;28;20433;-69
2023/10/09 01:13:52;;;;;;;10.73;5.10;;;;;;;;;;5052977;28;20405;-69
2023/10/09 01:16:21;;;;;;;13.43;5.00;;;;;;;;;;5052675;28;20420;-69
2023/10/09 01:18:51;;;;;;;9.40;4.60;;;;;;;;;;5052700;28;20577;-68
2023/10/09 01:21:17;;;;;;;14.97;5.60;;;;;;;;;;5052682;28;20420;-68
2023/10/09 01:26:44;;;;;;;16.83;5.70;;;;;;;;;;5052675;28;20424;-68
2023/10/09 01:29:14;;;;;;;12.43;4.83;;;;;;;;;;5052603;28;20411;-68
2023/10/09 01:31:46;;;;;;;11.80;4.67;;;;;;;;;;5052569;28;20499;-68
2023/10/09 01:34:15;;;;;;;11.97;5.63;;;;;;;;;;5052138;28;20876;-68
2023/10/09 01:36:41;;;;;;;19.03;6.10;;;;;;;;;;5052455;28;20413;-68
2023/10/09 01:39:23;;;;;;;10.83;5.13;;;;;;;;;;5052641;28;20939;-68
2023/10/09 01:41:51;;;;;;;9.70;4.70;;;;;;;;;;5051260;28;20409;-68
2023/10/09 01:44:18;;;;;;;10.10;4.80;;;;;;;;;;5050930;28;20428;-68
2023/10/09 01:46:45;;;;;;;10.70;5.47;;;;;;;;;;5051921;28;20477;-68
2023/10/09 01:49:17;;;;;;;9.07;4.77;;;;;;;;;;5052265;28;20397;-68
2023/10/09 01:51:43;;;;;;;14.37;4.83;;;;;;;;;;5050851;28;20409;-68
2023/10/09 01:54:16;;;;;;;20.03;6.70;;;;;;;;;;5050822;28;20464;-68
2023/10/09 01:56:46;;;;;;;9.33;4.70;;;;;;;;;;5051853;28;20414;-68
2023/10/09 01:59:12;;;;;;;7.87;4.17;;;;;;;;;;5051996;28;20396;-68
2023/10/09 02:01:42;;;;;;;16.70;5.63;;;;;;;;;;5052216;28;20508;-68
2023/10/09 02:04:13;;;;;;;11.63;4.87;;;;;;;;;;5052034;28;20416;-68
2023/10/09 02:06:40;;;;;;;7.13;4.27;;;;;;;;;;5050467;28;20429;-68
2023/10/09 02:09:06;;;;;;;20.03;5.80;;;;;;;;;;5052016;28;20425;-68
2023/10/09 02:11:39;;;;;;;17.30;4.80;;;;;;;;;;5051895;28;20446;-68
2023/10/09 02:14:24;;;;;;;13.93;4.70;;;;;;;;;;5051840;28;20806;-67
2023/10/09 02:17:02;;;;;;;15.60;5.50;;;;;;;;;;5050538;28;20618;-68
2023/10/09 02:19:31;;;;;;;11.57;6.03;;;;;;;;;;5052048;28;20463;-68
2023/10/09 02:22:01;;;;;;;11.87;5.10;;;;;;;;;;5051848;28;20452;-67
2023/10/09 02:24:49;;;;;;;12.67;4.30;;;;;;;;;;5050521;28;20471;-68
2023/10/09 02:27:19;;;;;;;12.17;4.53;;;;;;;;;;5051520;28;20970;-68
2023/10/09 02:29:47;;;;;;;15.13;6.67;;;;;;;;;;5051892;28;20520;-68
2023/10/09 02:32:14;;;;;;;10.77;5.07;;;;;;;;;;5051654;28;20455;-68
2023/10/09 02:34:40;;;;;;;6.60;4.13;;;;;;;;;;5051589;28;20484;-69
2023/10/09 02:37:12;;;;;;;12.67;4.60;;;;;;;;;;5050243;28;20798;-70
2023/10/09 02:39:43;;;;;;;19.30;4.90;;;;;;;;;;5050565;28;20499;-70
2023/10/09 02:44:49;;;;;;;17.33;5.13;;;;;;;;;;5051710;28;20427;-68
2023/10/09 02:47:29;;;;;;;15.30;7.40;;;;;;;;;;5055267;28;21027;-68
2023/10/09 02:50:06;;;;;;;10.90;4.00;;;;;;;;;;5055593;28;20426;-68
2023/10/09 02:52:40;;;;;;;13.47;5.50;;;;;;;;;;5055716;28;20424;-69
2023/10/09 02:55:28;;;;;;;10.50;5.43;;;;;;;;;;5055292;28;20967;-68
2023/10/09 02:58:05;;;;;;;10.33;4.57;;;;;;;;;;5055016;28;20511;-68
2023/10/09 03:00:32;;;;;;;5.97;4.00;;;;;;;;;;5055493;28;20923;-68
2023/10/09 03:02:58;;;;;;;15.20;3.90;;;;;;;;;;5055613;28;20459;-68
2023/10/09 03:05:27;;;;;;;8.13;4.47;;;;;;;;;;5053734;28;20428;-68
2023/10/09 03:07:53;;;;;;;14.30;5.83;;;;;;;;;;5055171;28;20437;-68
2023/10/09 03:10:20;;;;;;;10.43;4.83;;;;;;;;;;5055111;28;20498;-68
2023/10/09 03:12:51;;;;;;;11.90;4.40;;;;;;;;;;5053974;28;20421;-68
2023/10/09 03:15:18;;;;;;;16.43;4.70;;;;;;;;;;5054840;28;20468;-68
2023/10/09 03:17:44;;;;;;;13.60;4.77;;;;;;;;;;5055059;28;20898;-68
2023/10/09 03:20:14;;;;;;;13.13;4.20;;;;;;;;;;5055005;28;20750;-68
2023/10/09 03:22:40;;;;;;;7.97;4.13;;;;;;;;;;5054993;28;20779;-68
2023/10/09 03:25:11;;;;;;;12.73;4.17;;;;;;;;;;5054673;28;20900;-69
2023/10/09 03:27:37;;;;;;;11.47;4.07;;;;;;;;;;5054920;28;20944;-69
2023/10/09 03:30:05;;;;;;;9.63;4.43;;;;;;;;;;5054777;28;20428;-69
2023/10/09 03:32:31;;;;;;;8.50;4.30;;;;;;;;;;5054727;28;20412;-69
2023/10/09 03:34:59;;;;;;;16.10;5.27;;;;;;;;;;5054504;28;20800;-69
2023/10/09 03:37:34;;;;;;;17.20;5.73;;;;;;;;;;5054575;28;20482;-69
2023/10/09 03:40:00;;;;;;;8.80;6.00;;;;;;;;;;5054657;28;20434;-69
2023/10/09 03:42:26;;;;;;;14.80;3.70;;;;;;;;;;5054474;28;20405;-69
2023/10/09 03:44:53;;;;;;;9.40;5.23;;;;;;;;;;5054616;28;20412;-68
2023/10/09 03:47:22;;;;;;;19.90;5.30;;;;;;;;;;5054258;28;20781;-69
2023/10/09 03:49:51;;;;;;;15.60;5.20;;;;;;;;;;5054300;28;20409;-69
2023/10/09 03:52:17;;;;;;;14.17;4.70;;;;;;;;;;5054392;28;20413;-69
2023/10/09 03:54:46;;;;;;;12.07;4.37;;;;;;;;;;5054330;28;20453;-69
2023/10/09 03:57:18;;;;;;;14.47;5.60;;;;;;;;;;5054093;28;20435;-69
2023/10/09 03:59:44;;;;;;;15.43;6.27;;;;;;;;;;5054381;28;20437;-69
2023/10/09 04:02:10;;;;;;;10.77;4.27;;;;;;;;;;5054266;28;20445;-69
2023/10/09 04:04:36;;;;;;;15.60;6.37;;;;;;;;;;5052954;28;20460;-69
2023/10/09 04:07:02;;;;;;;13.23;4.50;;;;;;;;;;5053929;28;20481;-69
2023/10/09 04:09:28;;;;;;;17.20;4.40;;;;;;;;;;5054192;28;20435;-69
2023/10/09 04:14:54;;;;;;;9.50;5.43;;;;;;;;;;5054167;28;20521;-69
2023/10/09 04:22:50;;;;;;;9.80;4.70;;;;;;;;;;5054169;28;20962;-69
2023/10/09 04:25:24;;;;;;;9.80;3.90;;;;;;;;;;5053713;28;20424;-69
2023/10/09 04:27:53;;;;;;;11.07;4.90;;;;;;;;;;5053812;28;20436;-69
2023/10/09 04:30:19;;;;;;;8.50;4.33;;;;;;;;;;5053834;28;20492;-69
2023/10/09 04:32:45;;;;;;;14.67;6.63;;;;;;;;;;5052538;28;20424;-69
2023/10/09 04:35:26;;;;;;;10.50;5.00;;;;;;;;;;5053796;28;20456;-69
2023/10/09 04:37:59;;;;;;;7.90;4.47;;;;;;;;;;5053865;28;20486;-69
2023/10/09 04:40:48;;;;;;;9.03;4.40;;;;;;;;;;5053959;28;20413;-70
2023/10/09 04:43:20;;;;;;;14.53;5.83;;;;;;;;;;5053799;28;20420;-69
2023/10/09 04:48:37;;;;;;;13.17;5.20;;;;;;;;;;5053955;28;20531;-69
2023/10/09 04:51:33;;;;;;;9.70;4.00;;;;;;;;;;5053794;28;20451;-69
2023/10/09 04:54:15;;;;;;;11.30;3.93;;;;;;;;;;5053786;28;20781;-69
2023/10/09 04:56:54;;;;;;;11.37;4.70;;;;;;;;;;5053455;28;20947;-69
2023/10/09 04:59:25;;;;;;;14.27;4.67;;;;;;;;;;5053489;28;20435;-69
2023/10/09 05:01:59;;;;;;;16.80;6.10;;;;;;;;;;5053240;28;20915;-69
2023/10/09 05:07:22;;;;;;;16.07;5.37;;;;;;;;;;5053170;28;20515;-69
2023/10/09 05:10:14;;;;;;;6.93;4.00;;;;;;;;;;5052427;28;20865;-69
2023/10/09 05:12:46;;;;;;;14.37;4.37;;;;;;;;;;5053101;28;20478;-69
2023/10/09 05:15:13;;;;;;;10.20;5.00;;;;;;;;;;5052600;28;20462;-69
2023/10/09 05:17:39;;;;;;;11.10;5.53;;;;;;;;;;5051394;28;20461;-69
2023/10/09 05:22:57;;;;;;;11.23;6.20;;;;;;;;;;5053009;28;20405;-69
2023/10/09 05:25:58;;;;;;;11.70;4.50;;;;;;;;;;5052532;28;20401;-69
2023/10/09 05:28:30;;;;;;;16.77;5.90;;;;;;;;;;5049471;28;20897;-68
2023/10/09 05:33:45;;;;;;;8.57;4.30;;;;;;;;;;5021212;28;20417;-68
2023/10/09 05:38:58;;;;;;;18.47;5.10;;;;;;;;;;5052399;28;20490;-68
2023/10/09 05:41:47;;;;;;;8.47;4.70;;;;;;;;;;5052288;28;20413;-69
2023/10/09 05:45:30;;;;;;;13.60;5.43;;;;;;;;;;5052335;28;20497;-68
2023/10/09 05:49:47;;;;;;;11.20;4.47;;;;;;;;;;5051589;28;20479;-69
2023/10/09 05:52:42;;;;;;;12.27;5.97;;;;;;;;;;5052282;28;20424;-69
2023/10/09 06:06:02;;;;;;;11.13;4.07;;;;;;;;;;5051943;28;20401;-69
2023/10/09 06:14:12;;;;;;;7.30;4.03;;;;;;;;;;5051858;28;20412;-69
2023/10/09 06:16:42;;;;;;;8.70;4.70;;;;;;;;;;5051585;28;20410;-68
2023/10/09 06:19:27;;;;;;;15.53;4.67;;;;;;;;;;5051686;28;20479;-69
2023/10/09 06:24:42;;;;;;;11.30;6.13;;;;;;;;;;5051948;28;20416;-68
2023/10/09 06:27:12;;;;;;;11.73;5.90;;;;;;;;;;5051593;28;20451;-69
2023/10/09 06:35:17;;;;;;;13.13;5.27;;;;;;;;;;5051614;28;20495;-68
2023/10/09 06:45:54;;;;;;;18.40;7.87;;;;;;;;;;5048415;28;20422;-68
2023/10/09 06:53:58;;;;;;;8.33;4.83;;;;;;;;;;5051558;28;20773;-68
2023/10/09 06:58:58;;;;;;;12.33;4.83;;;;;;;;;;5051415;28;20398;-69
2023/10/09 07:03:53;;;;;;;15.87;5.70;;;;;;;;;;5047897;28;20411;-69
2023/10/09 07:17:04;;;;;;;17.10;6.80;;;;;;;;;;5051050;28;20449;-69
2023/10/09 07:22:16;;;;;;;12.80;5.20;;;;;;;;;;5051127;28;20447;-69
2023/10/09 07:24:49;;;;;;;21.87;6.00;;;;;;;;;;5051142;28;20567;-71
2023/10/09 07:27:42;;;;;;;8.53;4.73;;;;;;;;;;5050753;28;20440;-68
2023/10/09 07:30:35;;;;;;;11.67;5.43;;;;;;;;;;5050910;28;20908;-69
2023/10/09 07:32:54;;;;;;;8.60;4.33;;;;;;;;;;5053643;28;20432;-69
2023/10/09 07:35:46;;;;;;;9.33;4.57;;;;;;;;;;5053232;28;21111;-69
2023/10/09 07:38:08;;;;;;;13.90;6.50;;;;;;;;;;5054631;28;20916;-69
2023/10/09 07:40:51;;;;;;;9.20;4.73;;;;;;;;;;5054614;28;20420;-69
2023/10/09 07:43:17;;;;;;;32.27;6.13;;;;;;;;;;5054325;28;20523;-69
2023/10/09 07:48:16;;;;;;;12.90;4.70;;;;;;;;;;5054139;28;20429;-68
2023/10/09 07:50:48;;;;;;;11.13;5.53;;;;;;;;;;5054384;28;21006;-70
2023/10/09 07:53:14;;;;;;;12.50;5.83;;;;;;;;;;5054084;28;20451;-69
2023/10/09 07:55:48;;;;;;;13.53;6.10;;;;;;;;;;5054911;28;20519;-68
2023/10/09 07:58:14;;;;;;;10.87;5.83;;;;;;;;;;5054099;28;20952;-68
2023/10/09 08:01:06;;;;;;;18.40;5.97;;;;;;;;;;5054126;28;20417;-69
2023/10/09 08:03:33;;;;;;;24.47;5.00;;;;;;;;;;5052602;28;20421;-69
2023/10/09 08:09:17;;;;;;;23.83;6.87;;;;;;;;;;5054341;28;20515;-69
2023/10/09 08:17:20;;;;;;;10.70;5.43;;;;;;;;;;5074821;22;20468;-69
2023/10/09 08:19:53;;;;;;;13.30;7.00;;;;;;;;;;5013709;28;20427;-69
2023/10/09 08:24:55;;;;;;;15.63;5.33;;;;;;;;;;5013822;28;20415;-70
2023/10/09 08:30:44;;;;;;;15.00;6.27;;;;;;;;;;5013650;28;20453;-68
2023/10/09 08:33:35;;;;;;;18.63;5.67;;;;;;;;;;5012268;28;20434;-70
2023/10/09 08:36:07;;;;;;;6.57;3.90;;;;;;;;;;5013419;28;20477;-70
2023/10/09 08:38:34;;;;;;;15.30;6.93;;;;;;;;;;5013224;28;20447;-70
2023/10/09 08:41:19;;;;;;;13.00;6.03;;;;;;;;;;5013277;28;20815;-70
2023/10/09 08:43:52;;;;;;;15.60;5.27;;;;;;;;;;5012225;28;20417;-70
2023/10/09 08:46:23;;;;;;;11.10;5.00;;;;;;;;;;5013085;28;20462;-70
2023/10/09 08:48:49;;;;;;;8.90;4.90;;;;;;;;;;5012945;28;20810;-70
2023/10/09 08:51:18;;;;;;;13.73;6.00;;;;;;;;;;5011925;28;20419;-70
2023/10/09 08:53:45;;;;;;;10.03;5.47;;;;;;;;;;5013015;28;20439;-70
2023/10/09 08:56:12;;;;;;;11.33;6.17;;;;;;;;;;5012798;28;20520;-70
2023/10/09 08:58:38;;;;;;;8.30;5.70;;;;;;;;;;5012941;28;20992;-70
2023/10/09 09:01:04;;;;;;;13.77;5.20;;;;;;;;;;5012657;28;20427;-70
2023/10/09 09:03:40;;;;;;;13.30;5.67;;;;;;;;;;5012704;28;20416;-69
2023/10/09 09:06:07;;;;;;;12.27;5.57;;;;;;;;;;5012684;28;20437;-68
2023/10/09 09:08:37;;;;;;;11.30;5.37;;;;;;;;;;5012726;28;20458;-71
2023/10/09 09:13:49;;;;;;;13.03;6.60;;;;;;;;;;5012808;28;20426;-70
2023/10/09 09:16:16;;;;;;;7.40;4.77;;;;;;;;;;5012555;28;21028;-70
2023/10/09 09:18:56;;;;;;;7.50;4.50;;;;;;;;;;5010634;28;20473;-69
2023/10/09 09:21:22;;;;;;;13.23;7.03;;;;;;;;;;5011038;28;20419;-69
2023/10/09 09:23:55;;;;;;;12.90;7.00;;;;;;;;;;5012516;28;20415;-70
2023/10/09 09:26:37;;;;;;;10.37;5.37;;;;;;;;;;4992606;28;20423;-70
2023/10/09 09:29:05;;;;;;;6.73;4.77;;;;;;;;;;4992616;28;20950;-70
2023/10/09 09:31:37;;;;;;;11.70;5.70;;;;;;;;;;4992598;28;20791;-70
2023/10/09 09:34:04;;;;;;;10.57;5.40;;;;;;;;;;5007648;28;20482;-70
2023/10/09 09:36:34;;;;;;;17.00;6.53;;;;;;;;;;4998936;28;20793;-70
2023/10/09 09:39:04;;;;;;;11.13;5.40;;;;;;;;;;5012292;28;20993;-70
2023/10/09 09:41:33;;;;;;;8.30;5.00;;;;;;;;;;4994887;28;20407;-70
2023/10/09 09:44:00;;;;;;;4.80;4.33;;;;;;;;;;5012101;28;20536;-70
2023/10/09 09:46:36;;;;;;;8.30;5.37;;;;;;;;;;5011951;28;20748;-70
2023/10/09 09:49:05;;;;;;;7.70;5.33;;;;;;;;;;5011660;28;20517;-70
2023/10/09 09:51:34;;;;;;;11.03;5.23;;;;;;;;;;5011994;28;20417;-70
2023/10/09 09:54:00;;;;;;;11.13;5.33;;;;;;;;;;5010424;28;20454;-70
2023/10/09 09:56:26;;;;;;;7.97;5.33;;;;;;;;;;5011579;28;20458;-70
2023/10/09 09:58:53;;;;;;;14.37;6.57;;;;;;;;;;5011822;28;20427;-70
2023/10/09 10:01:27;;;;;;;16.70;5.50;;;;;;;;;;5011679;28;20454;-70
2023/10/09 10:04:04;;;;;;;7.83;5.53;;;;;;;;;;5010630;28;20423;-70
2023/10/09 10:06:32;;;;;;;11.67;5.53;;;;;;;;;;5011701;28;20419;-70
2023/10/09 10:08:58;;;;;;;20.23;6.67;;;;;;;;;;5012285;28;20496;-70
2023/10/09 10:11:44;;;;;;;9.30;6.00;;;;;;;;;;5012013;28;20417;-70
2023/10/09 10:14:12;;;;;;;10.67;5.70;;;;;;;;;;5011516;28;20773;-70
2023/10/09 10:16:56;;;;;;;8.43;6.40;;;;;;;;;;5011424;28;20490;-70
2023/10/09 10:19:22;;;;;;;12.40;6.63;;;;;;;;;;5011693;28;20411;-70
2023/10/09 10:21:49;;;;;;;12.50;6.30;;;;;;;;;;5010331;28;20407;-70
2023/10/09 10:24:30;;;;;;;9.83;5.20;;;;;;;;;;5011509;28;20486;-69
2023/10/09 10:27:17;;;;;;;18.17;6.47;;;;;;;;;;5011234;28;20415;-69
2023/10/09 10:29:45;;;;;;;13.70;7.23;;;;;;;;;;5011595;28;20921;-71
2023/10/09 10:32:12;;;;;;;14.77;7.30;;;;;;;;;;5010864;28;20446;-69
2023/10/09 10:34:55;;;;;;;10.87;5.93;;;;;;;;;;5009278;28;20462;-69
2023/10/09 10:37:28;;;;;;;10.67;6.00;;;;;;;;;;5010971;28;20442;-70
2023/10/09 10:39:59;;;;;;;14.30;6.33;;;;;;;;;;5011388;28;20403;-69
2023/10/09 10:42:34;;;;;;;9.60;5.50;;;;;;;;;;5010186;28;20423;-70
2023/10/09 10:45:34;;;;;;;14.03;5.93;;;;;;;;;;5010701;28;20441;-70
2023/10/09 10:47:58;;;;;;;13.73;6.73;;;;;;;;;;4991582;28;20491;-69
2023/10/09 10:53:19;;;;;;;14.27;7.13;;;;;;;;;;4991687;28;20824;-69
2023/10/09 10:58:47;;;;;;;14.33;6.87;;;;;;;;;;5010981;28;20449;-70
2023/10/09 11:01:16;;;;;;;17.47;7.50;;;;;;;;;;5011398;28;20407;-68
2023/10/09 11:06:41;;;;;;;20.33;8.20;;;;;;;;;;5011555;28;20628;-68
2023/10/09 11:10:00;;;;;;;17.63;8.17;;;;;;;;;;5014658;28;20509;-70
2023/10/09 11:12:11;;;;;;;11.73;6.90;;;;;;;;;;5010381;28;20459;-69
2023/10/09 11:14:46;;;;;;;20.80;8.20;;;;;;;;;;5014920;28;20458;-69
2023/10/09 11:17:23;;;;;;;30.40;8.30;;;;;;;;;;5014516;28;20537;-69
2023/10/09 11:19:52;;;;;;;11.60;7.37;;;;;;;;;;5014854;28;20406;-69
2023/10/09 11:22:36;;;;;;;13.83;6.90;;;;;;;;;;5013400;28;20416;-69
2023/10/09 11:25:11;;;;;;;18.87;7.80;;;;;;;;;;5014618;28;20465;-69
2023/10/09 11:27:40;;;;;;;10.70;6.40;;;;;;;;;;5014609;28;20426;-69
2023/10/09 11:30:10;;;;;;;14.00;7.53;;;;;;;;;;5014368;28;20410;-68
2023/10/09 11:32:38;;;;;;;15.57;9.33;;;;;;;;;;5014450;28;20413;-69
2023/10/09 11:35:11;;;;;;;9.50;7.30;;;;;;;;;;5013963;28;20469;-69
2023/10/09 11:37:42;;;;;;;10.70;7.50;;;;;;;;;;5014068;28;20957;-69
2023/10/09 11:40:30;;;;;;;13.47;6.80;;;;;;;;;;5014311;28;20434;-69
2023/10/09 11:42:57;;;;;;;13.63;6.77;;;;;;;;;;5014553;28;20399;-69
2023/10/09 11:45:25;;;;;;;11.80;6.60;;;;;;;;;;5014269;28;20421;-69
2023/10/09 11:47:58;;;;;;;15.73;7.80;;;;;;;;;;5014255;28;20427;-69
2023/10/09 11:50:56;;;;;;;16.50;8.00;;;;;;;;;;5014156;28;20403;-68
2023/10/09 11:55:48;;;;;;;11.23;6.67;;;;;;;;;;5014133;28;20830;-69
2023/10/09 11:58:15;;;;;;;11.60;6.90;;;;;;;;;;5014138;28;20820;-69
2023/10/09 12:00:47;;;;;;;13.37;6.30;;;;;;;;;;5014143;28;20744;-70
2023/10/09 12:03:14;;;;;;;16.60;7.23;;;;;;;;;;5014013;28;20482;-69
2023/10/09 12:05:44;;;;;;;16.77;6.43;;;;;;;;;;5014167;28;21020;-70
2023/10/09 12:08:10;;;;;;;13.63;5.80;;;;;;;;;;5013947;28;20434;-70
2023/10/09 12:10:40;;;;;;;12.40;6.57;;;;;;;;;;5014610;28;20411;-69
2023/10/09 12:13:07;;;;;;;12.13;6.67;;;;;;;;;;5014248;28;20906;-69
2023/10/09 12:15:39;;;;;;;12.00;6.63;;;;;;;;;;5013607;28;20454;-69
2023/10/09 12:18:09;;;;;;;11.03;5.93;;;;;;;;;;5013479;28;20457;-69
2023/10/09 12:20:35;;;;;;;9.03;6.20;;;;;;;;;;5014075;28;20777;-69
2023/10/09 12:23:05;;;;;;;11.20;5.30;;;;;;;;;;5013873;28;20457;-69
2023/10/09 12:25:32;;;;;;;11.50;5.57;;;;;;;;;;5013892;28;20411;-68
2023/10/09 12:28:01;;;;;;;15.47;7.93;;;;;;;;;;5014120;28;20433;-70
2023/10/09 12:30:27;;;;;;;12.37;6.60;;;;;;;;;;5014228;28;20439;-69
2023/10/09 12:32:54;;;;;;;10.13;7.20;;;;;;;;;;5014234;28;20838;-69
2023/10/09 12:35:20;;;;;;;14.40;6.67;;;;;;;;;;5013874;28;21067;-69
2023/10/09 12:37:46;;;;;;;8.80;5.93;;;;;;;;;;5013965;28;20426;-70
2023/10/09 12:40:13;;;;;;;13.63;6.53;;;;;;;;;;5013721;28;20448;-70
2023/10/09 12:42:40;;;;;;;13.90;7.40;;;;;;;;;;5013819;28;20442;-69
2023/10/09 12:45:09;;;;;;;11.17;7.10;;;;;;;;;;5013513;28;20748;-69
2023/10/09 12:47:38;;;;;;;17.03;6.33;;;;;;;;;;5014283;28;20489;-70
2023/10/09 12:50:13;;;;;;;13.70;7.23;;;;;;;;;;5013588;28;20411;-70
2023/10/09 12:52:39;;;;;;;8.70;6.77;;;;;;;;;;5013160;28;20498;-70
2023/10/09 12:55:07;;;;;;;9.60;7.07;;;;;;;;;;5011948;28;20917;-70
2023/10/09 12:57:34;;;;;;;13.10;7.20;;;;;;;;;;5013391;28;20433;-69
2023/10/09 13:00:00;;;;;;;17.10;7.30;;;;;;;;;;5013450;28;20435;-69
2023/10/09 13:02:29;;;;;;;7.80;5.80;;;;;;;;;;5013413;28;20407;-70
2023/10/09 13:04:56;;;;;;;7.87;6.20;;;;;;;;;;5013482;28;20419;-70
2023/10/09 13:07:22;;;;;;;16.50;7.10;;;;;;;;;;5012952;28;20485;-70
2023/10/09 13:12:33;;;;;;;12.50;6.67;;;;;;;;;;5013344;28;20468;-70
2023/10/09 13:14:59;;;;;;;18.50;7.47;;;;;;;;;;5013428;28;20466;-70
2023/10/09 13:17:28;;;;;;;16.93;7.70;;;;;;;;;;5013018;28;20451;-69
2023/10/09 13:19:54;;;;;;;18.13;9.03;;;26.70;1.00;;;;;;5013299;28;20435;-69
2023/10/09 13:22:20;;;;;;;12.53;7.17;;;26.80;1.00;;;;;;5013411;28;20871;-69
2023/10/09 13:24:48;;;;;;;14.53;7.00;;;27.10;1.00;;;;;;5013232;28;20435;-69
2023/10/09 13:27:21;;;;;;;13.30;7.37;;;27.20;1.00;;;;;;5011495;28;20442;-69
2023/10/09 13:29:48;;;;;;;11.67;7.20;;;27.10;1.00;;;;;;5012652;28;20473;-69
2023/10/09 13:32:14;;;;;;;17.53;6.90;;;26.90;1.00;;;;;;5013006;28;20427;-69
2023/10/09 13:34:44;;;;;;;11.13;6.43;;;26.60;1.00;;;;;;5012862;28;20508;-69
2023/10/09 13:37:13;;;;;;;16.07;8.00;;;26.60;1.00;;;;;;5012583;28;20443;-69
2023/10/09 13:39:51;;;;;;;7.27;6.27;;;26.50;1.00;;;;;;5012720;28;20426;-69
2023/10/09 13:42:17;;;;;;;13.67;7.23;;;26.50;1.00;;;;;;5012983;28;20442;-69
2023/10/09 13:44:43;;;;;;;9.00;6.57;;;26.50;1.00;;;;;;5012830;28;20462;-69
2023/10/09 13:47:18;;;;;;;15.93;6.80;;;26.60;1.00;;;;;;5012838;28;20647;-68
2023/10/09 13:49:52;;;;;;;17.37;6.80;;;26.70;1.00;;;;;;5012737;28;20263;-69
2023/10/09 13:52:18;;;;;;;18.57;7.30;;;26.50;1.00;;;;;;5013196;28;20423;-69
2023/10/09 13:54:48;;;;;;;10.60;6.17;;;26.50;1.00;;;;;;5012729;28;20893;-69
2023/10/09 13:57:15;;;;;;;14.60;6.73;;;26.40;1.00;;;;;;5012565;28;20488;-69
2023/10/09 13:59:49;;;;;;;12.90;7.20;;;26.50;1.00;;;;;;5012673;28;20415;-68
2023/10/09 14:02:18;;;;;;;13.13;6.13;;;26.80;1.00;;;;;;5012901;28;20411;-69
2023/10/09 14:04:47;;;;;;;10.77;6.43;;;26.80;1.00;;;;;;5012724;28;20415;-69
2023/10/09 14:07:16;;;;;;;12.90;6.47;;;26.60;1.00;;;;;;5012685;28;20438;-69
2023/10/09 14:10:17;;;;;;;8.70;6.20;;;26.60;1.00;;;;;;5012788;28;20505;-69
2023/10/09 14:12:39;;;;;;;15.77;7.10;;;26.50;1.00;;;;;;5010311;28;20518;-69
2023/10/09 14:15:05;;;;;;;12.77;7.00;;;26.30;1.00;;;;;;5012156;28;20524;-69
2023/10/09 14:17:36;;;;;;;14.23;8.33;;;26.30;1.00;;;;;;5031836;22;20822;-69
2023/10/09 14:20:25;;;;;;;9.80;6.50;;;26.30;1.00;;;;;;5051877;28;20420;-68
2023/10/09 14:22:52;;;;;;;12.30;6.80;;;26.30;1.00;;;;;;5051785;28;20217;-69
2023/10/09 14:25:20;;;;;;;18.43;7.53;;;26.20;1.00;;;;;;5051469;28;20439;-69
2023/10/09 14:27:48;;;;;;;9.83;6.10;;;26.30;1.00;;;;;;5047072;28;20492;-67
2023/10/09 14:30:22;;;;;;;10.83;7.77;;;26.40;1.00;;;;;;5031817;28;20413;-67
2023/10/09 14:32:55;;;;;;;22.40;8.60;;;26.40;1.00;;;;;;5031835;28;20408;-69
2023/10/09 14:35:26;;;;;;;17.57;6.90;;;26.40;1.00;;;;;;5031530;28;20453;-68
2023/10/09 14:37:53;;;;;;;9.43;6.10;;;26.40;1.00;;;;;;5031149;28;20525;-68
2023/10/09 14:40:29;;;;;;;12.97;6.20;;;26.60;1.00;;;;;;5031142;28;20430;-68
2023/10/09 14:42:57;;;;;;;16.60;6.83;;;26.70;1.00;;;;;;5034638;28;20424;-68
2023/10/09 14:45:25;;;;;;;15.23;7.53;;;26.50;1.00;;;;;;5035603;28;20426;-69
2023/10/09 14:47:53;;;;;;;12.90;6.47;;;26.70;1.00;;;;;;5035231;28;20959;-68
2023/10/09 14:50:22;;;;;;;11.00;6.83;;;26.80;1.00;;;;;;5035706;28;20483;-69
2023/10/09 14:52:50;;;;;;;14.00;7.27;;;26.60;1.00;;;;;;5035302;28;20479;-69
2023/10/09 14:55:20;;;;;;;12.13;6.43;;;26.70;1.00;;;;;;5034885;28;21085;-68
2023/10/09 14:57:52;;;;;;;11.77;6.63;;;26.80;1.00;;;;;;5024763;28;20438;-68
2023/10/09 15:00:22;;;;;;;11.30;6.80;;;26.80;1.00;;;;;;5035467;28;20417;-68
2023/10/09 15:02:52;;;;;;;10.43;6.77;;;27.00;1.00;;;;;;5035304;28;20743;-68
2023/10/09 15:05:18;;;;;;;6.20;5.60;;;27.20;1.00;;;;;;5035166;28;20406;-68
2023/10/09 15:07:46;;;;;;;16.70;7.47;;;27.30;1.00;;;;;;5035410;28;20437;-68
2023/10/09 15:10:15;;;;;;;13.40;6.30;;;27.10;1.00;;;;;;5035138;28;20560;-68
2023/10/09 15:12:42;;;;;;;12.43;6.70;;;27.00;1.00;;;;;;5033949;28;20511;-68
2023/10/09 15:15:13;;;;;;;12.87;6.17;;;26.90;1.00;;;;;;5034876;28;20587;-68
2023/10/09 15:17:43;;;;;;;9.37;5.80;;;26.90;1.00;;;;;;5035168;28;20968;-68
2023/10/09 15:20:13;;;;;;;8.77;6.20;;;26.70;1.00;;;;;;5035197;28;20405;-68
2023/10/09 15:22:40;;;;;;;9.47;6.57;;;26.40;1.00;;;;;;5035145;28;21006;-67
2023/10/09 15:25:06;;;;;;;11.93;6.33;;;26.10;1.00;;;;;;5034853;28;20779;-68
2023/10/09 15:27:32;;;;;;;10.23;6.17;;;26.00;1.00;;;;;;5033650;28;20441;-68
2023/10/09 15:29:57;;;;;;;12.83;5.80;;;26.00;1.00;;;;;;5033671;28;20824;-69
2023/10/09 15:32:24;;;;;;;12.20;6.20;;;26.10;1.00;;;;;;5034955;28;20586;-68
2023/10/09 15:34:56;;;;;;;13.67;6.60;;;26.10;1.00;;;;;;5034977;28;20203;-69
2023/10/09 15:37:22;;;;;;;15.80;7.53;;;25.80;1.00;;;;;;5035005;28;20414;-69
2023/10/09 15:39:49;;;;;;;8.50;5.80;;;25.60;1.00;;;;;;5027846;28;20937;-68
2023/10/09 15:42:16;;;;;;;12.83;7.37;;;25.50;1.00;;;;;;5014623;28;20928;-68
2023/10/09 15:44:42;;;;;;;7.60;5.90;;;25.40;1.00;;;;;;5021487;28;20959;-68
2023/10/09 15:47:08;;;;;;;7.10;5.83;;;25.30;1.00;;;;;;5034413;28;20453;-68
2023/10/09 15:49:34;;;;;;;5.83;5.23;;;25.20;1.00;;;;;;5033697;28;20443;-69
2023/10/09 15:52:02;;;;;;;11.00;6.03;;;25.00;1.00;;;;;;5014262;28;20477;-69
2023/10/09 15:54:28;;;;;;;11.67;6.40;;;24.90;1.00;;;;;;5022785;28;20423;-69
2023/10/09 15:56:55;;;;;;;7.33;6.03;;;24.90;1.00;;;;;;5053809;28;20512;-68
2023/10/09 15:59:24;;;;;;;15.13;6.60;;;24.70;1.00;;;;;;5054128;28;20202;-68
2023/10/09 16:01:53;;;;;;;7.20;4.90;;;24.60;1.00;;;;;;5052695;28;20528;-69
2023/10/09 16:04:19;;;;;;;9.30;5.60;;;24.40;1.00;;;;;;5054421;28;20490;-68
2023/10/09 16:06:44;;;;;;;10.77;6.50;;;24.20;1.00;;;;;;5054013;28;20414;-68
2023/10/09 16:09:15;;;;;;;11.53;5.60;;;24.10;1.00;;;;;;5053827;28;20700;-68
2023/10/09 16:11:41;;;;;;;9.43;7.13;;;23.90;1.00;;;;;;5054323;28;20178;-68
2023/10/09 16:14:10;;;;;;;6.90;5.20;;;23.70;1.00;;;;;;5053735;28;20428;-68
2023/10/09 16:16:41;;;;;;;8.30;5.80;;;23.60;1.00;;;;;;5040809;28;20210;-68
2023/10/09 16:19:09;;;;;;;22.40;7.47;;;23.50;1.00;;;;;;5053809;28;20538;-68
2023/10/09 16:21:35;;;;;;;6.80;5.40;;;23.40;1.00;;;;;;5040617;28;20430;-68
2023/10/09 16:24:01;;;;;;;9.10;5.30;;;23.20;1.00;;;;;;5032251;28;20426;-68
2023/10/09 16:26:28;;;;;;;9.57;5.70;;;23.10;1.00;;;;;;5033270;28;20782;-68
2023/10/09 16:28:53;;;;;;;18.53;6.93;;;23.00;1.00;;;;;;5034039;28;20209;-68
2023/10/09 16:31:19;;;;;;;12.17;6.83;;;22.90;1.00;;;;;;5034211;28;20441;-68
2023/10/09 16:33:47;;;;;;;11.50;6.43;;;22.70;1.00;;;;;;5033615;28;20274;-69
2023/10/09 16:36:13;;;;;;;16.13;6.20;;;22.60;1.00;;;;;;5031947;28;20218;-68